TimeCST,TemperatureF,Dew PointF,Humidity,Sea Level PressureIn,VisibilityMPH,Wind Direction,Wind SpeedMPH,Gust SpeedMPH,PrecipitationIn,Events,Conditions,WindDirDegrees,DateUTC
12:15 AM,35.6,28.4,75,30.08,10.0,SE,4.6,-,0.00,,Clear,140,2013-03-04 06:15:00
12:35 AM,33.8,28.4,81,30.08,9.0,Calm,Calm,-,0.00,,Clear,0,2013-03-04 06:35:00
12:55 AM,33.8,28.4,81,30.08,10.0,SE,5.8,-,0.00,,Clear,140,2013-03-04 06:55:00
1:15 AM,33.8,28.4,81,30.07,10.0,Calm,Calm,-,0.00,,Clear,0,2013-03-04 07:15:00
1:35 AM,35.6,28.4,75,30.07,10.0,SSE,5.8,-,0.00,,Clear,150,2013-03-04 07:35:00
2:15 AM,35.6,26.6,70,30.06,10.0,SE,6.9,-,0.00,,Clear,140,2013-03-04 08:15:00
2:35 AM,35.6,26.6,70,30.05,10.0,SSE,6.9,-,0.00,,Clear,150,2013-03-04 08:35:00
2:55 AM,35.6,26.6,70,30.04,10.0,SSE,6.9,-,0.00,,Clear,150,2013-03-04 08:55:00
3:15 AM,37.4,26.6,65,30.03,10.0,SSE,8.1,-,0.00,,Clear,150,2013-03-04 09:15:00
3:35 AM,37.4,26.6,65,30.03,9.0,SSE,8.1,-,N/A,,Clear,150,2013-03-04 09:35:00
3:55 AM,37.4,26.6,65,30.02,10.0,SE,6.9,-,0.00,,Clear,130,2013-03-04 09:55:00
4:15 AM,37.4,24.8,60,30.02,10.0,SE,9.2,-,0.00,,Clear,140,2013-03-04 10:15:00
4:35 AM,37.4,24.8,60,30.02,10.0,SE,9.2,-,0.00,,Clear,140,2013-03-04 10:35:00
4:55 AM,39.2,24.8,56,30.01,9.0,SSE,10.4,-,0.00,,Clear,150,2013-03-04 10:55:00
5:15 AM,37.4,24.8,60,30.01,10.0,SSE,10.4,-,0.00,,Clear,150,2013-03-04 11:15:00
5:35 AM,37.4,24.8,60,30.00,10.0,SE,11.5,-,0.00,,Clear,140,2013-03-04 11:35:00
5:55 AM,37.4,24.8,60,30.00,9.0,SE,10.4,-,0.00,,Clear,140,2013-03-04 11:55:00
7:50 AM,41.0,28.4,61,30.01,10.0,SSE,11.5,-,N/A,,Mostly Cloudy,160,2013-03-04 13:50:00
8:50 AM,44.6,30.2,57,30.00,10.0,SSE,13.8,-,N/A,,Mostly Cloudy,160,2013-03-04 14:50:00
9:50 AM,51.8,32.0,47,29.97,10.0,South,13.8,20.7,N/A,,Mostly Cloudy,170,2013-03-04 15:50:00
10:50 AM,57.2,32.0,38,29.92,10.0,South,11.5,23.0,N/A,,Mostly Cloudy,170,2013-03-04 16:50:00
11:50 AM,62.6,32.0,32,29.88,10.0,South,17.3,28.8,N/A,,Mostly Cloudy,180,2013-03-04 17:50:00
1:55 PM,64.4,33.8,32,29.80,10.0,South,21.9,31.1,N/A,,Mostly Cloudy,190,2013-03-04 19:55:00
3:50 PM,64.4,35.6,34,29.79,10.0,South,9.2,17.3,N/A,,Mostly Cloudy,190,2013-03-04 21:50:00
4:50 PM,62.6,37.4,39,29.78,10.0,South,6.9,-,N/A,,Mostly Cloudy,170,2013-03-04 22:50:00
5:50 PM,62.6,37.4,39,29.78,9.0,South,10.4,-,N/A,,Mostly Cloudy,170,2013-03-04 23:50:00
6:45 PM,62.6,37.4,39,29.79,10.0,SSE,8.1,-,N/A,,Mostly Cloudy,150,2013-03-05 00:45:00
8:01 PM,62.6,39.2,42,29.80,10.0,SSE,5.8,-,N/A,,Mostly Cloudy,160,2013-03-05 02:01:00
8:15 PM,62.6,39.2,42,29.80,9.0,SSE,5.8,-,0.00,,Overcast,160,2013-03-05 02:15:00
8:35 PM,60.8,39.2,45,29.80,9.0,SSE,11.5,-,N/A,,Overcast,150,2013-03-05 02:35:00
8:55 PM,60.8,41.0,48,29.80,10.0,SSE,10.4,-,0.00,,Overcast,160,2013-03-05 02:55:00
9:15 PM,60.8,44.6,55,29.79,10.0,South,15.0,20.7,0.00,,Overcast,170,2013-03-05 03:15:00
9:35 PM,60.8,44.6,55,29.79,10.0,SSE,13.8,18.4,0.00,,Mostly Cloudy,160,2013-03-05 03:35:00
9:55 PM,60.8,44.6,55,29.79,9.0,South,13.8,20.7,0.00,,Mostly Cloudy,170,2013-03-05 03:55:00
10:15 PM,60.8,44.6,55,29.80,9.0,South,15.0,20.7,0.00,,Mostly Cloudy,170,2013-03-05 04:15:00
10:35 PM,60.8,46.4,59,29.79,10.0,South,13.8,20.7,0.00,,Mostly Cloudy,170,2013-03-05 04:35:00
10:55 PM,59.0,46.4,63,29.79,10.0,South,13.8,20.7,0.00,,Scattered Clouds,170,2013-03-05 04:55:00
11:15 PM,57.2,46.4,67,29.79,10.0,South,12.7,-,0.00,,Clear,180,2013-03-05 05:15:00
11:35 PM,57.2,48.2,72,29.79,10.0,South,15.0,-,0.00,,Clear,170,2013-03-05 05:35:00
11:55 PM,57.2,48.2,72,29.79,10.0,South,13.8,-,0.00,,Clear,180,2013-03-05 05:55:00